Time;durP1;ratioP1;P1;durP2;ratioP2;P2;SDS_P1;SDS_P2;PMS_P1;PMS_P2;Temp;Humidity;BMP_temperature;BMP_pressure;BME280_temperature;BME280_humidity;BME280_pressure;Samples;Min_cycle;Max_cycle;Signal;HPM_P1;HPM_P2
2023/12/05 00:00:39;;;;;;;55.00;27.60;;;;;;;-4.12;96.76;100324.50;105099;1256;82709;-52
2023/12/05 00:03:27;;;;;;;51.20;25.90;;;;;;;-4.12;96.77;100321.42;105058;1258;73951;-50
2023/12/05 00:05:56;;;;;;;53.70;25.90;;;;;;;-4.13;96.76;100317.98;105089;1257;69945;-51
2023/12/05 00:08:24;;;;;;;54.80;27.80;;;;;;;-4.15;96.57;100318.29;105120;1257;70009;-49
2023/12/05 00:10:52;;;;;;;54.60;27.30;;;;;;;-4.17;96.62;100319.10;105151;1257;73057;-50
2023/12/05 00:13:21;;;;;;;58.80;28.20;;;;;;;-4.19;96.52;100316.14;105139;1260;81518;-49
2023/12/05 00:15:49;;;;;;;65.30;31.10;;;;;;;-4.20;96.62;100317.14;105073;1257;71473;-51
2023/12/05 00:18:18;;;;;;;60.30;28.80;;;;;;;-4.22;96.67;100313.02;105122;1260;69960;-50
2023/12/05 00:20:46;;;;;;;50.70;26.90;;;;;;;-4.22;96.71;100314.73;105132;1260;70425;-51
2023/12/05 00:23:14;;;;;;;63.00;30.40;;;;;;;-4.23;96.70;100311.28;105126;1256;73073;-49
2023/12/05 00:25:43;;;;;;;57.90;30.00;;;;;;;-4.24;96.70;100307.00;105068;1260;81739;-50
2023/12/05 00:28:11;;;;;;;61.20;28.90;;;;;;;-4.25;96.58;100307.33;105142;1259;71791;-50
2023/12/05 00:30:40;;;;;;;53.20;27.50;;;;;;;-4.28;96.52;100311.38;105074;1256;70063;-51
2023/12/05 00:33:08;;;;;;;56.30;29.00;;;;;;;-4.30;96.50;100313.38;105160;1260;70012;-50
2023/12/05 00:35:36;;;;;;;58.10;29.10;;;;;;;-4.33;96.42;100317.05;105140;1258;74077;-50
2023/12/05 00:38:05;;;;;;;54.50;27.40;;;;;;;-4.36;96.38;100317.66;105086;1257;81523;-50
2023/12/05 00:40:33;;;;;;;52.00;27.60;;;;;;;-4.38;96.55;100317.30;105092;1256;70616;-50
2023/12/05 00:43:01;;;;;;;57.50;30.00;;;;;;;-4.39;96.44;100322.56;105092;1257;70007;-49
2023/12/05 00:45:29;;;;;;;58.30;28.70;;;;;;;-4.41;96.42;100323.55;105107;1257;70338;-50
2023/12/05 00:47:58;;;;;;;58.60;29.10;;;;;;;-4.44;96.36;100325.52;105138;1257;74892;-49
2023/12/05 00:50:27;;;;;;;54.00;27.80;;;;;;;-4.45;96.41;100327.38;105142;1257;80511;-49
2023/12/05 00:53:05;;;;;;;56.90;28.90;;;;;;;-4.45;96.62;100324.30;105129;1261;73609;-49
2023/12/05 00:55:35;;;;;;;54.00;28.50;;;;;;;-4.45;96.57;100324.98;105158;1257;70008;-50
2023/12/05 00:58:04;;;;;;;63.00;28.20;;;;;;;-4.46;96.46;100323.44;105147;1257;69885;-49
2023/12/05 01:00:32;;;;;;;59.30;29.20;;;;;;;-4.47;96.59;100319.98;105122;1257;74734;-50
2023/12/05 01:03:01;;;;;;;59.50;29.30;;;;;;;-4.49;96.44;100320.61;105155;1256;83133;-49
2023/12/05 01:05:32;;;;;;;52.60;27.80;;;;;;;-4.52;96.43;100319.37;105090;1261;72630;-50
2023/12/05 01:08:01;;;;;;;59.10;28.00;;;;;;;-4.53;96.51;100320.54;105070;1260;69986;-50
2023/12/05 01:10:29;;;;;;;51.60;27.30;;;;;;;-4.53;96.52;100323.11;105139;1260;69864;-50
2023/12/05 01:12:58;;;;;;;54.40;28.20;;;;;;;-4.54;96.49;100323.06;105142;1257;74712;-52
2023/12/05 01:15:27;;;;;;;59.10;30.00;;;;;;;-4.55;96.55;100325.28;105160;1256;82547;-50
2023/12/05 01:17:56;;;;;;;56.50;27.50;;;;;;;-4.56;96.44;100324.90;105131;1256;71846;-49
2023/12/05 01:20:25;;;;;;;59.40;29.20;;;;;;;-4.57;96.36;100328.30;105139;1256;69973;-50
2023/12/05 01:22:54;;;;;;;64.60;30.30;;;;;;;-4.58;96.46;100328.09;105182;1261;70005;-49
2023/12/05 01:25:22;;;;;;;56.60;28.80;;;;;;;-4.58;96.50;100327.23;105150;1256;73806;-50
2023/12/05 01:27:51;;;;;;;55.20;29.10;;;;;;;-4.59;96.48;100322.96;105175;1260;83580;-50
2023/12/05 01:30:20;;;;;;;54.50;27.10;;;;;;;-4.59;96.49;100317.84;105185;1260;72652;-49
2023/12/05 01:32:48;;;;;;;56.50;27.70;;;;;;;-4.59;96.53;100314.44;105133;1257;69993;-49
2023/12/05 01:35:17;;;;;;;56.20;27.40;;;;;;;-4.59;96.59;100312.05;105158;1256;69983;-49
2023/12/05 01:37:48;;;;;;;56.40;27.60;;;;;;;-4.58;96.67;100319.23;105141;1257;72855;-50
2023/12/05 01:40:16;;;;;;;51.50;26.10;;;;;;;-4.59;96.63;100317.69;105119;1256;83168;-50
2023/12/05 01:42:45;;;;;;;53.00;27.20;;;;;;;-4.58;96.53;100318.21;105160;1256;72585;-50
2023/12/05 01:45:13;;;;;;;56.80;27.50;;;;;;;-4.58;96.57;100315.13;105093;1256;70040;-50
2023/12/05 01:47:42;;;;;;;54.40;27.40;;;;;;;-4.58;96.54;100309.18;105139;1260;70057;-51
2023/12/05 01:50:14;;;;;;;53.10;27.20;;;;;;;-4.57;96.65;100305.59;105183;1256;72949;-50
2023/12/05 01:52:47;;;;;;;54.60;26.80;;;;;;;-4.57;96.67;100303.41;105101;1257;81819;-50
2023/12/05 01:55:16;;;;;;;54.50;27.90;;;;;;;-4.55;96.67;100299.17;105091;1257;70559;-49
2023/12/05 01:57:46;;;;;;;53.70;27.10;;;;;;;-4.54;96.65;100295.28;105108;1256;70069;-49
2023/12/05 02:00:16;;;;;;;54.40;25.80;;;;;;;-4.54;96.61;100290.69;105140;1256;70396;-51
2023/12/05 02:02:46;;;;;;;54.50;26.10;;;;;;;-4.53;96.57;100294.61;105164;1257;72662;-49
2023/12/05 02:05:15;;;;;;;55.50;26.50;;;;;;;-4.53;96.66;100296.16;105178;1260;81906;-50
2023/12/05 02:07:44;;;;;;;53.80;26.10;;;;;;;-4.51;96.63;100297.21;105120;1261;70828;-50
2023/12/05 02:10:12;;;;;;;54.40;25.90;;;;;;;-4.50;96.76;100295.03;105131;1261;69926;-48
2023/12/05 02:12:40;;;;;;;52.30;26.00;;;;;;;-4.46;96.83;100294.58;105059;1260;70006;-50
2023/12/05 02:15:09;;;;;;;55.90;27.30;;;;;;;-4.43;96.86;100292.78;105113;1259;73043;-48
2023/12/05 02:17:49;;;;;;;49.80;26.80;;;;;;;-4.41;96.75;100287.89;105143;1260;81569;-48
2023/12/05 02:20:20;;;;;;;55.90;26.90;;;;;;;-4.40;96.68;100280.76;105060;1259;72280;-50
2023/12/05 02:23:01;;;;;;;54.60;26.00;;;;;;;-4.40;96.71;100274.43;105143;1256;69961;-48
2023/12/05 02:25:51;;;;;;;51.50;26.40;;;;;;;-4.39;96.66;100276.17;105152;1261;69989;-50
2023/12/05 02:28:20;;;;;;;51.70;24.80;;;;;;;-4.39;96.63;100271.56;105110;1257;72792;-49
2023/12/05 02:30:48;;;;;;;55.80;26.50;;;;;;;-4.37;96.68;100268.36;105115;1260;82094;-48
2023/12/05 02:33:17;;;;;;;50.50;25.00;;;;;;;-4.36;96.71;100262.59;105114;1257;71743;-48
2023/12/05 02:35:52;;;;;;;51.70;24.90;;;;;;;-4.35;96.73;100262.61;105132;1261;69967;-48
2023/12/05 02:38:38;;;;;;;48.90;24.10;;;;;;;-4.32;96.78;100261.98;105135;1257;69932;-49
2023/12/05 02:41:12;;;;;;;49.40;24.50;;;;;;;-4.29;96.77;100258.62;105133;1257;72446;-49
2023/12/05 02:43:49;;;;;;;42.80;23.40;;;;;;;-4.28;96.74;100255.08;105163;1257;80986;-48
2023/12/05 02:46:18;;;;;;;53.00;25.20;;;;;;;-4.26;96.64;100255.63;105070;1257;70551;-48
2023/12/05 02:48:46;;;;;;;44.90;23.60;;;;;;;-4.26;96.55;100254.95;105162;1261;70107;-49
2023/12/05 02:51:14;;;;;;;49.30;24.90;;;;;;;-4.25;96.53;100254.79;105096;1260;69964;-50
2023/12/05 02:53:43;;;;;;;46.70;22.70;;;;;;;-4.25;96.59;100253.26;105062;1256;72969;-49
2023/12/05 02:56:11;;;;;;;44.90;23.90;;;;;;;-4.23;96.53;100253.45;105051;1256;80952;-49
2023/12/05 02:58:39;;;;;;;46.60;24.20;;;;;;;-4.23;96.46;100252.95;105059;1256;70989;-50
2023/12/05 03:01:07;;;;;;;47.50;23.30;;;;;;;-4.24;96.32;100241.83;105087;1258;70046;-48
2023/12/05 03:03:35;;;;;;;48.00;23.70;;;;;;;-4.26;96.28;100239.42;105063;1261;70021;-48
2023/12/05 03:06:04;;;;;;;49.10;24.30;;;;;;;-4.27;96.31;100239.58;105094;1256;72825;-49
2023/12/05 03:08:32;;;;;;;47.30;23.30;;;;;;;-4.27;96.30;100241.27;105172;1261;81569;-48
2023/12/05 03:11:00;;;;;;;48.40;25.00;;;;;;;-4.27;96.24;100244.19;105213;1257;72147;-49
2023/12/05 03:13:40;;;;;;;49.00;24.10;;;;;;;-4.27;96.26;100242.81;105097;1261;69997;-50
2023/12/05 03:16:08;;;;;;;45.90;23.80;;;;;;;-4.29;96.14;100240.73;105123;1262;70022;-49
2023/12/05 03:18:37;;;;;;;51.20;25.30;;;;;;;-4.29;96.08;100240.04;105123;1257;72088;-49
2023/12/05 03:21:05;;;;;;;48.30;24.30;;;;;;;-4.31;96.08;100234.20;105071;1261;81712;-50
2023/12/05 03:23:34;;;;;;;50.70;25.10;;;;;;;-4.32;95.99;100227.36;105168;1257;71922;-49
2023/12/05 03:26:02;;;;;;;48.70;24.60;;;;;;;-4.35;95.88;100225.24;105067;1256;69995;-50
2023/12/05 03:28:30;;;;;;;52.30;25.00;;;;;;;-4.36;96.07;100230.50;105110;1260;69941;-49
2023/12/05 03:30:58;;;;;;;50.00;24.60;;;;;;;-4.38;96.06;100231.84;105086;1256;73799;-49
2023/12/05 03:33:27;;;;;;;50.30;24.90;;;;;;;-4.39;95.87;100229.77;105095;1261;81567;-48
2023/12/05 03:35:55;;;;;;;49.70;24.80;;;;;;;-4.41;95.90;100233.82;105033;1260;71598;-48
2023/12/05 03:38:23;;;;;;;47.60;24.80;;;;;;;-4.44;95.83;100235.80;105097;1258;69999;-48
2023/12/05 03:40:51;;;;;;;47.20;24.40;;;;;;;-4.45;95.96;100239.36;105140;1261;70032;-50
2023/12/05 03:43:19;;;;;;;48.40;24.80;;;;;;;-4.46;95.90;100242.21;105095;1257;72778;-48
2023/12/05 03:45:48;;;;;;;47.40;25.50;;;;;;;-4.49;95.81;100238.44;105135;1261;82739;-49
2023/12/05 03:48:16;;;;;;;48.20;24.40;;;;;;;-4.50;95.84;100245.57;105155;1260;70991;-49
2023/12/05 03:50:44;;;;;;;55.80;26.20;;;;;;;-4.50;95.84;100245.92;105136;1261;69935;-49
2023/12/05 03:53:12;;;;;;;46.30;24.60;;;;;;;-4.53;95.78;100237.84;105104;1261;70011;-48
2023/12/05 03:55:41;;;;;;;52.20;26.60;;;;;;;-4.55;95.90;100243.59;105100;1257;71621;-49
2023/12/05 03:58:09;;;;;;;48.00;25.10;;;;;;;-4.56;95.94;100241.70;105089;1260;81487;-48
2023/12/05 04:00:37;;;;;;;49.90;26.30;;;;;;;-4.55;95.89;100231.48;105174;1262;71881;-49
2023/12/05 04:03:05;;;;;;;51.10;25.40;;;;;;;-4.54;95.89;100226.04;105091;1258;69950;-48
2023/12/05 04:05:34;;;;;;;51.00;25.90;;;;;;;-4.54;96.05;100231.52;105157;1262;69994;-49
2023/12/05 04:08:03;;;;;;;50.70;25.80;;;;;;;-4.54;96.09;100237.64;105188;1260;71798;-49
2023/12/05 04:10:31;;;;;;;47.10;24.10;;;;;;;-4.53;96.12;100245.16;105186;1260;82355;-49
2023/12/05 04:12:59;;;;;;;55.40;24.60;;;;;;;-4.53;96.05;100245.50;105090;1257;71058;-50
2023/12/05 04:15:27;;;;;;;53.80;25.80;;;;;;;-4.51;96.16;100252.71;105087;1262;69999;-47
2023/12/05 04:17:56;;;;;;;45.80;24.50;;;;;;;-4.50;96.14;100256.98;105130;1261;69944;-50
2023/12/05 04:20:24;;;;;;;54.50;25.30;;;;;;;-4.47;96.22;100258.06;105128;1260;73076;-50
2023/12/05 04:22:53;;;;;;;49.00;25.60;;;;;;;-4.46;96.16;100246.49;105136;1260;83434;-50
2023/12/05 04:25:21;;;;;;;50.30;25.60;;;;;;;-4.50;95.92;100238.60;105079;1259;71424;-50
2023/12/05 04:27:49;;;;;;;51.30;25.60;;;;;;;-4.50;95.97;100237.21;105090;1262;69898;-52
2023/12/05 04:30:17;;;;;;;52.30;25.20;;;;;;;-4.50;96.13;100238.58;105045;1259;69164;-53
2023/12/05 04:32:47;;;;;;;48.00;25.90;;;;;;;-4.49;96.02;100230.23;105143;1257;72295;-49
2023/12/05 04:35:15;;;;;;;48.30;24.90;;;;;;;-4.49;95.94;100227.16;105119;1257;81369;-50
2023/12/05 04:37:44;;;;;;;54.60;25.80;;;;;;;-4.51;95.97;100226.80;105070;1261;72002;-50
2023/12/05 04:40:12;;;;;;;49.90;24.20;;;;;;;-4.52;95.96;100224.23;105166;1262;69935;-50
2023/12/05 04:42:40;;;;;;;44.90;24.00;;;;;;;-4.50;96.10;100227.83;105154;1261;70013;-50
2023/12/05 04:45:09;;;;;;;48.70;23.90;;;;;;;-4.50;96.07;100224.43;105102;1256;73074;-50
2023/12/05 04:47:37;;;;;;;48.80;25.20;;;;;;;-4.50;95.93;100228.69;105114;1257;80071;-50
2023/12/05 04:50:06;;;;;;;47.10;23.50;;;;;;;-4.50;96.14;100225.79;105098;1261;71222;-51
2023/12/05 04:52:34;;;;;;;50.00;23.60;;;;;;;-4.49;96.10;100229.39;105149;1257;69931;-50
2023/12/05 04:55:03;;;;;;;45.30;24.10;;;;;;;-4.49;96.13;100223.08;105173;1261;70255;-50
2023/12/05 04:57:31;;;;;;;44.20;24.60;;;;;;;-4.48;96.13;100223.27;105171;1257;72815;-50
2023/12/05 04:59:59;;;;;;;46.40;24.80;;;;;;;-4.48;96.19;100221.58;105091;1261;82533;-49
2023/12/05 05:02:27;;;;;;;46.00;23.30;;;;;;;-4.49;96.09;100225.30;105125;1256;71360;-53
2023/12/05 05:04:56;;;;;;;48.70;24.00;;;;;;;-4.48;96.13;100227.89;105113;1256;69954;-50
2023/12/05 05:07:24;;;;;;;47.90;25.60;;;;;;;-4.46;96.27;100228.59;105121;1262;69936;-50
2023/12/05 05:09:53;;;;;;;46.50;23.60;;;;;;;-4.45;96.30;100220.27;105214;1257;72998;-51
2023/12/05 05:12:21;;;;;;;46.20;24.00;;;;;;;-4.44;96.12;100218.23;105095;1262;81516;-50
2023/12/05 05:14:49;;;;;;;47.60;24.70;;;;;;;-4.42;96.24;100221.52;105038;1262;72375;-50
2023/12/05 05:17:17;;;;;;;46.90;23.70;;;;;;;-4.40;96.13;100217.63;105047;1257;69922;-50
2023/12/05 05:19:45;;;;;;;44.00;23.10;;;;;;;-4.40;96.28;100215.25;105106;1257;69878;-50
2023/12/05 05:22:13;;;;;;;47.70;23.70;;;;;;;-4.40;96.14;100213.89;105139;1261;72801;-51
2023/12/05 05:24:42;;;;;;;43.70;22.50;;;;;;;-4.40;96.20;100215.42;105207;1261;81485;-52
2023/12/05 05:27:11;;;;;;;49.60;24.20;;;;;;;-4.39;96.15;100218.51;105063;1256;72306;-52
2023/12/05 05:29:40;;;;;;;42.40;22.70;;;;;;;-4.37;96.11;100218.89;105162;1262;69881;-53
2023/12/05 05:32:08;;;;;;;44.30;23.00;;;;;;;-4.37;96.15;100218.21;105069;1262;69957;-49
2023/12/05 05:34:36;;;;;;;46.70;23.60;;;;;;;-4.36;96.04;100218.73;105101;1257;71879;-50
2023/12/05 05:37:04;;;;;;;45.20;23.70;;;;;;;-4.35;96.09;100215.67;105029;1261;82085;-50
2023/12/05 05:39:32;;;;;;;45.80;23.40;;;;;;;-4.34;96.07;100217.59;105076;1259;70158;-52
2023/12/05 05:42:00;;;;;;;48.80;24.80;;;;;;;-4.35;96.16;100218.09;105034;1261;70262;-53
2023/12/05 05:44:28;;;;;;;45.40;23.20;;;;;;;-4.36;95.94;100220.11;105056;1259;70070;-50
2023/12/05 05:46:56;;;;;;;50.30;25.40;;;;;;;-4.37;96.04;100221.63;105167;1256;72451;-51
2023/12/05 05:49:25;;;;;;;46.60;24.10;;;;;;;-4.36;96.02;100221.46;105211;1260;81453;-51
2023/12/05 05:51:53;;;;;;;45.40;24.20;;;;;;;-4.36;95.87;100228.13;105126;1262;71521;-51
2023/12/05 05:54:21;;;;;;;46.00;24.50;;;;;;;-4.36;95.99;100227.29;105055;1257;69966;-50
2023/12/05 05:56:50;;;;;;;47.90;24.30;;;;;;;-4.34;95.97;100228.16;105199;1261;70008;-51
2023/12/05 05:59:18;;;;;;;51.40;24.80;;;;;;;-4.33;95.95;100232.29;105087;1259;72331;-53
2023/12/05 06:01:47;;;;;;;47.60;24.60;;;;;;;-4.33;95.89;100228.19;105055;1260;81632;-49
2023/12/05 06:04:15;;;;;;;44.70;23.60;;;;;;;-4.32;95.98;100226.00;105128;1258;72632;-50
2023/12/05 06:06:43;;;;;;;46.00;24.10;;;;;;;-4.30;96.03;100223.80;105064;1261;69904;-49
2023/12/05 06:09:11;;;;;;;48.30;24.50;;;;;;;-4.30;95.93;100229.09;105101;1261;69969;-49
2023/12/05 06:11:40;;;;;;;48.40;24.50;;;;;;;-4.29;95.99;100229.30;105083;1258;73086;-50
2023/12/05 06:14:08;;;;;;;46.30;24.50;;;;;;;-4.28;95.97;100233.23;105069;1261;81980;-53
2023/12/05 06:16:36;;;;;;;48.80;24.50;;;;;;;-4.27;96.10;100231.55;105165;1262;70405;-52
2023/12/05 06:19:04;;;;;;;49.70;23.80;;;;;;;-4.25;96.11;100229.55;105075;1258;69877;-50
2023/12/05 06:21:33;;;;;;;47.60;24.20;;;;;;;-4.24;96.07;100231.77;105073;1260;69887;-49
2023/12/05 06:24:01;;;;;;;47.00;23.80;;;;;;;-4.21;96.27;100234.04;105096;1256;73226;-51
2023/12/05 06:26:29;;;;;;;46.80;24.40;;;;;;;-4.20;96.18;100231.34;105070;1262;81726;-52
2023/12/05 06:28:58;;;;;;;45.90;23.30;;;;;;;-4.18;96.11;100232.91;105060;1262;72101;-50
2023/12/05 06:31:26;;;;;;;48.50;23.30;;;;;;;-4.17;96.08;100231.92;105108;1257;71448;-52
2023/12/05 06:33:54;;;;;;;48.90;24.60;;;;;;;-4.16;96.19;100232.98;105185;1258;69857;-49
2023/12/05 06:36:23;;;;;;;49.50;23.00;;;;;;;-4.15;96.08;100234.70;105173;1257;74099;-48
2023/12/05 06:38:51;;;;;;;46.50;23.00;;;;;;;-4.13;96.13;100230.96;105285;1261;81098;-48
2023/12/05 06:41:19;;;;;;;46.90;23.80;;;;;;;-4.12;96.02;100227.76;105167;1257;73007;-49
2023/12/05 06:43:47;;;;;;;48.30;23.80;;;;;;;-4.13;96.00;100228.59;105255;1257;69970;-47
2023/12/05 06:46:16;;;;;;;45.90;23.70;;;;;;;-4.13;95.95;100225.52;105161;1262;69948;-48
2023/12/05 06:48:44;;;;;;;44.80;22.90;;;;;;;-4.11;95.98;100227.09;105207;1257;73649;-49
2023/12/05 06:51:18;;;;;;;46.10;23.00;;;;;;;-4.09;96.01;100228.66;105167;1262;81584;-50
2023/12/05 06:53:47;;;;;;;46.30;23.60;;;;;;;-4.09;95.90;100223.38;105368;1257;70535;-48
2023/12/05 06:56:20;;;;;;;50.10;24.60;;;;;;;-4.11;95.84;100220.09;105221;1258;69918;-48
2023/12/05 06:58:48;;;;;;;50.20;24.50;;;;;;;-4.11;95.78;100220.77;105206;1260;69826;-52
2023/12/05 07:01:17;;;;;;;46.10;23.90;;;;;;;-4.11;95.74;100223.15;105168;1260;72800;-48
2023/12/05 07:03:46;;;;;;;43.90;23.20;;;;;;;-4.12;95.71;100222.64;105393;1259;81530;-53
2023/12/05 07:06:23;;;;;;;45.80;22.00;;;;;;;-4.12;95.73;100221.45;105122;1257;72283;-52
2023/12/05 07:08:52;;;;;;;41.00;21.30;;;;;;;-4.11;95.83;100221.63;105284;1256;69998;-47
2023/12/05 07:11:20;;;;;;;44.10;22.70;;;;;;;-4.10;95.70;100225.73;105146;1260;69982;-49
2023/12/05 07:13:48;;;;;;;42.90;22.60;;;;;;;-4.11;95.74;100218.21;105115;1257;73515;-48
2023/12/05 07:16:16;;;;;;;46.90;23.70;;;;;;;-4.09;95.91;100212.98;105080;1262;82713;-48
2023/12/05 07:18:45;;;;;;;42.80;21.80;;;;;;;-4.08;95.80;100215.20;105169;1257;73221;-48
2023/12/05 07:21:13;;;;;;;43.30;23.20;;;;;;;-4.07;95.90;100219.16;105126;1262;69935;-48
2023/12/05 07:23:42;;;;;;;44.50;23.30;;;;;;;-4.06;95.77;100220.86;105287;1262;70126;-48
2023/12/05 07:26:16;;;;;;;46.00;22.70;;;;;;;-4.06;95.77;100222.41;105141;1262;72539;-49
2023/12/05 07:28:45;;;;;;;48.30;23.20;;;;;;;-4.05;95.79;100221.75;105103;1262;81466;-52
2023/12/05 07:31:14;;;;;;;45.60;23.10;;;;;;;-4.02;96.03;100219.40;105119;1262;71618;-49
2023/12/05 07:33:43;;;;;;;41.20;22.60;;;;;;;-3.98;95.94;100223.57;105165;1262;69900;-50
2023/12/05 07:36:12;;;;;;;43.10;21.40;;;;;;;-3.97;95.87;100222.40;105066;1262;69999;-49
2023/12/05 07:38:41;;;;;;;47.40;24.10;;;;;;;-3.94;95.93;100221.27;105149;1257;72616;-49
2023/12/05 07:41:24;;;;;;;44.50;22.40;;;;;;;-3.92;96.07;100218.05;105157;1260;81836;-51
2023/12/05 07:43:52;;;;;;;43.90;22.70;;;;;;;-3.88;96.08;100220.35;105059;1257;71365;-51
2023/12/05 07:46:21;;;;;;;44.70;22.70;;;;;;;-3.85;96.00;100217.86;105043;1262;69902;-50
2023/12/05 07:48:49;;;;;;;48.90;23.80;;;;;;;-3.83;95.90;100214.30;105156;1262;69995;-50
2023/12/05 07:51:17;;;;;;;43.50;23.10;;;;;;;-3.79;95.97;100214.72;105142;1262;73203;-49
2023/12/05 07:53:50;;;;;;;42.90;21.80;;;;;;;-3.75;95.99;100215.28;105121;1261;83460;-50
2023/12/05 07:56:18;;;;;;;39.10;21.70;;;;;;;-3.71;95.93;100217.42;105110;1259;70998;-48
2023/12/05 07:58:46;;;;;;;44.00;22.60;;;;;;;-3.66;95.94;100218.86;105110;1257;69925;-48
2023/12/05 08:01:14;;;;;;;44.50;23.30;;;;;;;-3.63;95.90;100220.12;105087;1262;69993;-50
2023/12/05 08:03:42;;;;;;;43.20;23.10;;;;;;;-3.60;95.87;100220.86;105090;1259;72004;-49
2023/12/05 08:06:11;;;;;;;46.00;22.70;;;;;;;-3.56;95.74;100221.09;105143;1261;82698;-50
2023/12/05 08:08:40;;;;;;;45.90;22.80;;;;;;;-3.53;95.81;100221.48;105099;1261;71326;-49
2023/12/05 08:11:10;;;;;;;46.40;24.20;;;;;;;-3.49;95.81;100224.80;105130;1260;69938;-49
2023/12/05 08:13:38;;;;;;;47.50;24.50;;;;;;;-3.45;95.78;100229.47;105190;1260;70005;-50
2023/12/05 08:16:07;;;;;;;42.50;22.80;;;;;;;-3.42;95.67;100235.86;105102;1260;72041;-50
2023/12/05 08:18:35;;;;;;;45.40;24.60;;;;;;;-3.38;95.64;100235.92;105165;1258;81386;-49
2023/12/05 08:21:04;;;;;;;45.40;22.90;;;;;;;-3.33;95.73;100231.90;105121;1257;71654;-50
2023/12/05 08:23:32;;;;;;;44.80;24.80;;;;;;;-3.28;95.82;100227.88;105112;1257;70387;-50
2023/12/05 08:26:00;;;;;;;42.50;23.20;;;;;;;-3.24;95.62;100228.80;105056;1260;70084;-48
2023/12/05 08:28:29;;;;;;;43.10;22.80;;;;;;;-3.21;95.60;100228.69;105161;1262;72790;-50
2023/12/05 08:30:57;;;;;;;44.50;22.80;;;;;;;-3.18;95.62;100224.29;105074;1260;82804;-49
2023/12/05 08:33:26;;;;;;;43.20;22.70;;;;;;;-3.13;95.64;100222.30;105121;1263;71790;-49
2023/12/05 08:35:54;;;;;;;49.20;23.00;;;;;;;-3.08;95.56;100225.80;105162;1257;69934;-49
2023/12/05 08:38:23;;;;;;;47.40;23.00;;;;;;;-3.03;95.58;100226.91;105102;1262;69938;-49
2023/12/05 08:40:51;;;;;;;41.80;23.00;;;;;;;-2.98;95.62;100229.71;105155;1257;73515;-49
2023/12/05 08:43:19;;;;;;;45.10;23.60;;;;;;;-2.90;95.70;100232.23;105114;1262;81834;-51
2023/12/05 08:45:48;;;;;;;42.60;23.40;;;;;;;-2.83;95.70;100226.52;105089;1263;73127;-49
2023/12/05 08:48:16;;;;;;;45.40;24.40;;;;;;;-2.77;95.81;100227.11;105190;1262;70454;-49
2023/12/05 08:50:45;;;;;;;40.40;22.10;;;;;;;-2.73;95.66;100234.17;105160;1262;70085;-50
2023/12/05 08:53:14;;;;;;;41.40;22.10;;;;;;;-2.71;95.44;100238.48;105142;1263;72770;-49
2023/12/05 08:55:43;;;;;;;44.20;22.80;;;;;;;-2.69;95.36;100235.60;105086;1259;81528;-50
2023/12/05 08:58:12;;;;;;;47.30;25.50;;;;;;;-2.68;95.16;100233.40;105127;1262;71897;-50
2023/12/05 09:00:40;;;;;;;41.70;22.40;;;;;;;-2.67;95.13;100238.37;105151;1258;70005;-49
2023/12/05 09:03:09;;;;;;;41.30;23.20;;;;;;;-2.65;95.05;100238.91;105138;1261;69935;-50
2023/12/05 09:05:37;;;;;;;52.20;27.90;;;;;;;-2.63;95.20;100238.94;105130;1257;72731;-49
2023/12/05 09:08:05;;;;;;;44.70;24.80;;;;;;;-2.58;95.13;100235.59;105101;1262;81384;-51
2023/12/05 09:10:34;;;;;;;52.90;26.50;;;;;;;-2.54;95.14;100229.81;105115;1261;71845;-49
2023/12/05 09:13:02;;;;;;;69.50;29.60;;;;;;;-2.51;95.14;100230.55;105111;1257;70444;-50
2023/12/05 09:15:30;;;;;;;55.80;27.70;;;;;;;-2.49;94.99;100236.23;105143;1264;71416;-50
2023/12/05 09:17:59;;;;;;;46.20;24.40;;;;;;;-2.46;94.99;100232.66;105124;1263;72957;-51
2023/12/05 09:20:27;;;;;;;48.20;26.10;;;;;;;-2.42;94.98;100233.39;105102;1262;81423;-49
2023/12/05 09:22:56;;;;;;;48.80;25.90;;;;;;;-2.40;95.00;100231.38;105107;1262;71567;-50
2023/12/05 09:25:29;;;;;;;47.20;24.90;;;;;;;-2.35;95.10;100234.86;105083;1257;69836;-49
2023/12/05 09:27:57;;;;;;;49.50;24.90;;;;;;;-2.31;95.02;100235.60;105132;1262;70035;-50
2023/12/05 09:30:26;;;;;;;53.20;26.50;;;;;;;-2.27;94.98;100229.66;105166;1261;72730;-50
2023/12/05 09:32:54;;;;;;;48.30;24.40;;;;;;;-2.22;95.10;100225.77;105162;1262;81464;-50
2023/12/05 09:35:24;;;;;;;49.20;25.10;;;;;;;-2.17;95.07;100219.33;105114;1257;71709;-51
2023/12/05 09:37:52;;;;;;;44.60;24.60;;;;;;;-2.13;94.97;100220.41;105148;1263;69941;-49
2023/12/05 09:40:21;;;;;;;44.60;24.70;;;;;;;-2.08;95.08;100219.61;105088;1262;70030;-50
2023/12/05 09:42:49;;;;;;;47.70;24.30;;;;;;;-2.04;94.99;100218.62;105097;1261;72950;-50
2023/12/05 09:45:17;;;;;;;45.00;22.60;;;;;;;-2.00;95.06;100215.92;105189;1265;81649;-50
2023/12/05 09:47:47;;;;;;;36.60;21.70;;;;;;;-1.95;95.16;100215.30;105107;1257;71607;-50
2023/12/05 09:50:16;;;;;;;41.00;21.90;;;;;;;-1.89;95.18;100207.65;105140;1262;69932;-51
2023/12/05 09:52:45;;;;;;;40.10;21.30;;;;;;;-1.83;95.13;100205.84;105087;1263;70005;-49
2023/12/05 09:55:13;;;;;;;44.20;23.60;;;;;;;-1.76;95.18;100213.61;105168;1261;71654;-50
2023/12/05 09:57:42;;;;;;;41.50;23.20;;;;;;;-1.69;94.97;100214.35;105160;1262;82287;-51
2023/12/05 10:00:11;;;;;;;46.80;23.30;;;;;;;-1.61;94.92;100215.30;105147;1260;72005;-50
2023/12/05 10:02:40;;;;;;;42.70;23.60;;;;;;;-1.55;94.73;100214.15;105134;1261;69948;-51
2023/12/05 10:05:11;;;;;;;44.60;25.50;;;;;;;-1.48;94.78;100206.33;105156;1261;70013;-50
2023/12/05 10:07:39;;;;;;;45.10;22.60;;;;;;;-1.40;94.64;100206.06;105136;1263;73967;-50
2023/12/05 10:10:08;;;;;;;42.70;22.70;;;;;;;-1.34;94.40;100203.88;105088;1262;80859;-51
2023/12/05 10:12:37;;;;;;;44.30;24.10;;;;;;;-1.29;94.39;100199.11;105077;1263;71027;-51
2023/12/05 10:15:05;;;;;;;40.90;21.80;;;;;;;-1.25;94.23;100195.20;105085;1263;69934;-50
2023/12/05 10:17:35;;;;;;;44.10;23.00;;;;;;;-1.24;93.92;100196.07;105089;1262;70045;-50
2023/12/05 10:20:04;;;;;;;43.10;23.60;;;;;;;-1.26;93.83;100196.06;105090;1257;73325;-50
2023/12/05 10:22:33;;;;;;;44.90;24.00;;;;;;;-1.27;93.65;100191.77;105124;1263;82798;-54
2023/12/05 10:25:01;;;;;;;40.30;23.20;;;;;;;-1.28;93.39;100193.13;105116;1262;71929;-51
2023/12/05 10:27:30;;;;;;;39.00;22.80;;;;;;;-1.30;93.29;100185.40;105103;1262;69127;-52
2023/12/05 10:29:58;;;;;;;41.00;22.50;;;;;;;-1.33;93.32;100182.13;105080;1262;69917;-52
2023/12/05 10:32:29;;;;;;;39.60;23.30;;;;;;;-1.34;93.36;100182.79;105148;1262;72887;-52
2023/12/05 10:34:58;;;;;;;41.60;22.30;;;;;;;-1.34;93.35;100180.40;105104;1262;81781;-51
2023/12/05 10:37:28;;;;;;;39.70;22.20;;;;;;;-1.33;93.22;100178.70;105113;1261;71850;-53
2023/12/05 10:40:01;;;;;;;37.60;21.60;;;;;;;-1.32;93.08;100175.27;105119;1257;69526;-51
2023/12/05 10:42:29;;;;;;;58.70;29.80;;;;;;;-1.27;93.11;100170.67;105090;1262;69902;-50
2023/12/05 10:45:05;;;;;;;36.50;21.40;;;;;;;-1.16;93.24;100166.30;105155;1270;71615;-52
2023/12/05 10:47:33;;;;;;;40.60;22.70;;;;;;;-1.09;93.30;100168.39;105164;1262;80617;-50
2023/12/05 10:50:03;;;;;;;41.80;22.40;;;;;;;-1.09;93.21;100165.83;105111;1263;72039;-51
2023/12/05 10:52:33;;;;;;;37.50;21.20;;;;;;;-1.06;93.12;100159.51;105112;1263;69182;-51
2023/12/05 10:55:01;;;;;;;39.50;23.00;;;;;;;-1.04;93.15;100156.77;104971;1258;168628;-51
2023/12/05 10:57:30;;;;;;;41.10;22.30;;;;;;;-1.04;92.78;100156.25;105106;1261;72841;-51
2023/12/05 10:59:59;;;;;;;40.80;22.80;;;;;;;-1.04;92.66;100156.60;105144;1261;81616;-52
2023/12/05 11:02:28;;;;;;;40.10;21.90;;;;;;;-1.04;92.44;100160.89;105148;1263;73072;-51
2023/12/05 11:04:57;;;;;;;39.30;21.50;;;;;;;-1.05;92.48;100158.66;105150;1261;69164;-53
2023/12/05 11:07:25;;;;;;;39.20;22.60;;;;;;;-1.03;92.43;100158.66;105149;1257;69194;-51
2023/12/05 11:09:54;;;;;;;36.50;21.50;;;;;;;-0.96;92.43;100156.98;105111;1260;73399;-53